Últimos artigos:
Resolvendo um problema de áudio no GNU Radio
Converter um número Real para o formato binário em vírgula flutuante segundo a Norma IEEE-754
VirtualBox sobre Debian 10 (buster) não encontra dispositivos USB
Falta de som no Morse Runner em Linux?
Touchpad tapping, em Debian Buster (10)
Acender um LED com a tensão da rede eléctrica
Últimas fotos:
Últimos METARs:
LPAZ 120700Z VRB02KT 9999 FEW016 13/12 Q10...
LPFR 120700Z 26004KT CAVOK 14/12 Q1022=
LPHR 120700Z 27006KT 9999 SCT014 17/15 Q10...
LPLA 120700Z /////KT 9999 FEW026 14/12 Q10...
LPMA 120700Z 27004KT 230V300 9999 FEW015 1...
LPPD 120700Z 34002KT 9999 FEW018 13/12 Q10...
LPPR 120700Z 30010KT 9999 VCSH FEW012 SCT0...
LPPS 120700Z 35011KT 9999 SCT014 17/13 Q10...
LPPT 120700Z 30006KT 9999 FEW014 15/13 Q10...
Últimos QSOs:
2021/03/17-20:16 70cm IK2XRL (MAURO)
2021/03/17-14:53 70cm EB3JT (JORDI)
2021/03/17-14:47 70cm EB3JT (JORDI)
2021/03/17-14:45 70cm EA7GPW (FRANCISCO)
2021/03/16-11:16 2m 7X3WPL (SAHARA)
2021/03/16-11:13 2m EC4TR (J.)
  UTC
Rpi-6 CPU Temp: 454642.0 °C (251812Z)
IN51oq 0727Z /////KT //// 20/14 Q1018=
207926